createdAt,value
2019-01-11T00:01:51.111Z,4.68
2019-01-11T00:04:56.784Z,4.89
2019-01-11T00:08:02.478Z,4.75
2019-01-11T00:11:08.186Z,4.58
2019-01-11T00:14:13.957Z,4.53
2019-01-11T00:17:19.675Z,4.63
2019-01-11T00:20:25.271Z,4.54
2019-01-11T00:23:30.870Z,4.79
2019-01-11T00:26:36.497Z,4.55
2019-01-11T00:29:42.131Z,4.58
2019-01-11T00:32:47.980Z,4.73
2019-01-11T00:35:53.607Z,4.78
2019-01-11T00:38:59.646Z,4.87
2019-01-11T00:42:06.985Z,4.81
2019-01-11T00:45:12.843Z,4.90
2019-01-11T00:48:18.564Z,4.20
2019-01-11T00:51:24.324Z,4.52
2019-01-11T00:54:29.996Z,4.50
2019-01-11T00:57:35.595Z,4.75
2019-01-11T01:00:41.214Z,5.03
2019-01-11T01:03:46.857Z,4.91
2019-01-11T01:06:53.577Z,4.91
2019-01-11T01:09:59.180Z,5.05
2019-01-11T01:13:05.606Z,5.16
2019-01-11T01:16:11.390Z,5.06
2019-01-11T01:19:20.134Z,4.98
2019-01-11T01:22:24.337Z,4.98
2019-01-11T01:25:30.023Z,5.10
2019-01-11T01:28:35.667Z,4.97
2019-01-11T01:31:43.049Z,5.14
2019-01-11T01:34:48.843Z,5.01
2019-01-11T01:37:54.562Z,5.09
2019-01-11T01:41:00.152Z,5.04
2019-01-11T01:44:05.931Z,5.07
2019-01-11T01:47:11.560Z,4.86
2019-01-11T01:50:17.292Z,4.85
2019-01-11T01:53:22.952Z,4.77
2019-01-11T01:56:28.583Z,4.83
2019-01-11T01:59:34.355Z,4.97
2019-01-11T02:02:40.224Z,4.72
2019-01-11T02:05:45.878Z,5.16
2019-01-11T02:08:51.506Z,4.94
2019-01-11T02:11:57.186Z,5.11
2019-01-11T02:15:02.973Z,4.95
2019-01-11T02:18:08.561Z,4.92
2019-01-11T02:21:14.151Z,5.14
2019-01-11T02:24:19.899Z,4.98
2019-01-11T02:27:25.536Z,5.04
2019-01-11T02:30:31.226Z,4.92
2019-01-11T02:33:36.857Z,4.87
2019-01-11T02:36:42.522Z,4.88
2019-01-11T02:39:48.184Z,4.71
2019-01-11T02:42:53.815Z,4.64
2019-01-11T02:45:59.408Z,4.47
2019-01-11T02:49:05.208Z,4.39
2019-01-11T02:52:10.925Z,4.56
2019-01-11T02:55:16.645Z,4.44
2019-01-11T02:58:22.279Z,4.53
2019-01-11T03:01:28.135Z,4.46
2019-01-11T03:04:33.886Z,4.51
2019-01-11T03:07:39.502Z,4.66
2019-01-11T03:10:45.234Z,4.73
2019-01-11T03:13:50.850Z,4.41
2019-01-11T03:16:56.663Z,4.69
2019-01-11T03:20:02.403Z,4.43
2019-01-11T03:23:08.250Z,4.32
2019-01-11T03:26:13.884Z,4.87
2019-01-11T03:29:19.497Z,4.84
2019-01-11T03:32:25.110Z,4.65
2019-01-11T03:35:30.732Z,4.56
2019-01-11T03:38:36.305Z,4.50
2019-01-11T03:42:09.138Z,4.63
2019-01-11T03:45:16.947Z,4.62
2019-01-11T03:48:22.571Z,4.61
2019-01-11T03:51:28.335Z,4.55
2019-01-11T03:54:33.954Z,4.45
2019-01-11T03:57:39.624Z,4.53
2019-01-11T04:00:45.280Z,4.34
2019-01-11T04:03:50.947Z,4.36
2019-01-11T04:06:56.523Z,4.30
2019-01-11T04:10:02.271Z,4.37
2019-01-11T04:13:07.964Z,4.11
2019-01-11T04:16:13.586Z,4.18
2019-01-11T04:19:19.245Z,4.39
2019-01-11T04:22:29.745Z,4.51
2019-01-11T04:25:46.939Z,4.46
2019-01-11T04:28:52.645Z,4.36
2019-01-11T04:31:58.314Z,4.24
2019-01-11T04:35:04.632Z,4.22
2019-01-11T04:38:10.273Z,4.34
2019-01-11T04:41:15.848Z,3.86
2019-01-11T04:44:21.440Z,4.08
2019-01-11T04:47:27.232Z,3.83
2019-01-11T04:50:32.874Z,3.71
2019-01-11T04:53:38.577Z,3.77
2019-01-11T04:56:44.239Z,3.46
2019-01-11T04:59:49.835Z,3.65
2019-01-11T05:02:55.420Z,3.76
2019-01-11T05:06:01.160Z,3.56
2019-01-11T05:09:08.077Z,3.28
2019-01-11T05:12:13.787Z,3.54
2019-01-11T05:15:19.529Z,3.20
2019-01-11T05:18:25.195Z,3.17
2019-01-11T05:21:30.846Z,3.09
2019-01-11T05:24:36.421Z,3.25
2019-01-11T05:27:42.145Z,3.14
2019-01-11T05:30:47.767Z,2.98
2019-01-11T05:33:53.495Z,3.19
2019-01-11T05:36:59.269Z,3.04
2019-01-11T05:40:06.276Z,3.28
2019-01-11T05:43:11.956Z,3.10
2019-01-11T05:46:17.636Z,3.05
2019-01-11T05:49:23.272Z,3.10
2019-01-11T05:52:28.944Z,3.03
2019-01-11T05:55:48.499Z,3.00
2019-01-11T05:59:12.981Z,3.09
2019-01-11T06:02:18.591Z,3.00
2019-01-11T06:05:24.295Z,3.08
2019-01-11T06:08:30.897Z,3.09
2019-01-11T06:11:36.487Z,3.21
2019-01-11T06:14:42.125Z,2.94
2019-01-11T06:17:47.749Z,2.91
2019-01-11T06:20:53.399Z,2.78
2019-01-11T06:23:59.064Z,3.08
2019-01-11T06:27:04.892Z,3.16
2019-01-11T06:30:13.064Z,3.09
2019-01-11T06:33:18.705Z,3.77
2019-01-11T06:36:24.317Z,3.76
2019-01-11T06:39:30.054Z,3.64
2019-01-11T06:42:36.722Z,4.05
2019-01-11T06:45:42.353Z,4.08
2019-01-11T06:48:48.007Z,3.92
2019-01-11T06:51:54.451Z,4.08
2019-01-11T06:55:00.178Z,3.80
2019-01-11T06:58:05.886Z,4.22
2019-01-11T07:01:11.549Z,3.88
2019-01-11T07:04:17.177Z,3.54
2019-01-11T07:07:22.800Z,3.08
2019-01-11T07:10:28.561Z,3.11
2019-01-11T07:13:34.236Z,3.14
2019-01-11T07:16:39.904Z,3.09
2019-01-11T07:19:45.572Z,3.03
2019-01-11T07:22:51.184Z,3.12
2019-01-11T07:25:56.923Z,3.35
2019-01-11T07:29:02.582Z,3.46
2019-01-11T07:32:08.201Z,3.44
2019-01-11T07:35:13.995Z,3.96
2019-01-11T07:38:19.787Z,4.23
2019-01-11T07:41:25.403Z,4.36
2019-01-11T07:44:31.145Z,4.38
2019-01-11T07:47:36.745Z,4.61
2019-01-11T07:50:42.367Z,4.51
2019-01-11T07:53:48.077Z,4.41
2019-01-11T07:56:54.468Z,4.81
2019-01-11T08:00:00.094Z,4.83
2019-01-11T08:03:06.050Z,4.68
2019-01-11T08:06:11.859Z,4.40
2019-01-11T08:09:17.574Z,4.53
2019-01-11T08:12:23.299Z,4.59
2019-01-11T08:15:29.117Z,4.89
2019-01-11T08:18:34.717Z,4.64
2019-01-11T08:21:40.413Z,4.38
2019-01-11T08:24:53.780Z,4.47
2019-01-11T08:28:06.587Z,4.47
2019-01-11T08:31:12.214Z,4.22
2019-01-11T08:34:17.957Z,4.43
2019-01-11T08:37:24.593Z,4.49
2019-01-11T08:40:30.309Z,4.70
2019-01-11T08:43:37.117Z,4.75
2019-01-11T08:46:42.888Z,4.66
2019-01-11T08:49:48.595Z,5.01
2019-01-11T08:52:54.453Z,5.64
2019-01-11T08:56:00.117Z,5.93
2019-01-11T08:59:05.860Z,5.98
2019-01-11T09:02:11.485Z,5.85
2019-01-11T09:05:17.256Z,6.30
2019-01-11T09:08:23.028Z,6.10
2019-01-11T09:11:28.616Z,6.37
2019-01-11T09:14:51.914Z,6.76
2019-01-11T09:18:17.956Z,7.07
2019-01-11T09:21:23.877Z,7.20
2019-01-11T09:24:29.624Z,7.50
2019-01-11T09:27:35.353Z,7.32
2019-01-11T09:30:41.180Z,7.77
2019-01-11T09:33:46.906Z,7.91
2019-01-11T09:36:52.656Z,7.80
2019-01-11T09:39:58.500Z,7.94
2019-01-11T09:43:04.443Z,8.06
2019-01-11T09:46:10.744Z,8.39
2019-01-11T09:49:16.499Z,8.01
2019-01-11T09:52:22.274Z,8.55
2019-01-11T09:55:28.016Z,8.71
2019-01-11T09:58:33.747Z,8.95
2019-01-11T10:01:39.591Z,8.49
2019-01-11T10:04:45.421Z,8.35
2019-01-11T10:07:52.271Z,8.82
2019-01-11T10:10:58.021Z,8.84
2019-01-11T10:14:03.886Z,9.04
2019-01-11T10:17:09.743Z,9.65
2019-01-11T10:20:15.754Z,9.45
2019-01-11T10:23:21.551Z,9.27
2019-01-11T10:26:27.392Z,9.49
2019-01-11T10:29:33.205Z,9.73
2019-01-11T10:32:38.918Z,9.32
2019-01-11T10:35:44.570Z,9.43
2019-01-11T10:38:50.209Z,9.20
2019-01-11T10:41:55.890Z,9.41
2019-01-11T10:45:01.514Z,9.20
2019-01-11T10:48:07.219Z,9.32
2019-01-11T10:51:12.949Z,8.74
2019-01-11T10:54:30.009Z,9.33
2019-01-11T10:57:35.636Z,9.16
2019-01-11T11:00:41.318Z,9.33
2019-01-11T11:03:47.039Z,9.36
2019-01-11T11:06:52.675Z,9.45
2019-01-11T11:09:59.612Z,9.76
2019-01-11T11:13:05.301Z,9.22
2019-01-11T11:16:10.976Z,9.67
2019-01-11T11:19:16.686Z,9.86
2019-01-11T11:22:22.319Z,10.04
2019-01-11T11:25:27.996Z,9.97
2019-01-11T11:28:33.583Z,10.13
2019-01-11T11:31:39.211Z,9.96
2019-01-11T11:34:46.481Z,10.08
2019-01-11T11:37:52.084Z,9.58
2019-01-11T11:40:57.700Z,10.27
2019-01-11T11:44:03.333Z,10.40
2019-01-11T11:47:08.938Z,9.96
2019-01-11T11:50:14.989Z,10.08
2019-01-11T11:53:20.777Z,9.93
2019-01-11T11:56:26.464Z,9.70
2019-01-11T11:59:32.106Z,9.82
2019-01-11T12:02:37.796Z,9.49
2019-01-11T12:05:43.387Z,9.78
2019-01-11T12:08:49.083Z,9.80
2019-01-11T12:11:54.794Z,9.75
2019-01-11T12:15:00.440Z,9.75
2019-01-11T12:18:06.215Z,9.73
2019-01-11T12:21:12.040Z,9.47
2019-01-11T12:24:18.692Z,9.89
2019-01-11T12:27:24.345Z,9.95
2019-01-11T12:30:30.061Z,9.76
2019-01-11T12:33:35.682Z,9.72
2019-01-11T12:36:41.507Z,9.64
2019-01-11T12:39:47.161Z,9.89
2019-01-11T12:42:52.792Z,9.81
2019-01-11T12:45:58.422Z,9.84
2019-01-11T12:49:04.075Z,9.54
2019-01-11T12:52:09.755Z,9.44
2019-01-11T12:55:15.438Z,9.45
2019-01-11T12:58:21.130Z,9.68
2019-01-11T13:01:26.744Z,9.54
2019-01-11T13:04:32.372Z,9.44
2019-01-11T13:07:38.016Z,9.38
2019-01-11T13:10:43.625Z,9.43
2019-01-11T13:13:49.284Z,9.64
2019-01-11T13:16:55.161Z,9.38
2019-01-11T13:20:00.962Z,9.40
2019-01-11T13:23:06.861Z,8.94
2019-01-11T13:26:12.651Z,9.08
2019-01-11T13:29:18.283Z,9.03
2019-01-11T13:32:23.996Z,9.03
2019-01-11T13:35:29.606Z,8.92
2019-01-11T13:38:35.308Z,9.20
2019-01-11T13:41:41.122Z,9.17
2019-01-11T13:44:46.749Z,8.67
2019-01-11T13:47:52.647Z,8.72
2019-01-11T13:50:58.271Z,8.34
2019-01-11T13:54:04.436Z,8.02
2019-01-11T13:57:10.039Z,7.64
2019-01-11T14:00:15.843Z,7.43
2019-01-11T14:03:21.556Z,7.50
2019-01-11T14:06:27.207Z,7.63
2019-01-11T14:09:33.242Z,7.79
2019-01-11T14:12:38.867Z,7.67
2019-01-11T14:15:44.646Z,7.17
2019-01-11T14:18:50.330Z,6.97
2019-01-11T14:21:55.978Z,6.40
2019-01-11T14:25:01.666Z,6.53
2019-01-11T14:28:07.450Z,6.70
2019-01-11T14:31:13.185Z,6.73
2019-01-11T14:34:18.949Z,6.50
2019-01-11T14:37:24.614Z,6.09
2019-01-11T14:40:30.225Z,6.45
2019-01-11T14:43:35.809Z,6.06
2019-01-11T14:46:41.445Z,5.98
2019-01-11T14:49:47.111Z,5.67
2019-01-11T14:52:52.908Z,5.82
2019-01-11T14:55:58.540Z,5.63
2019-01-11T14:59:04.202Z,5.53
2019-01-11T15:02:09.857Z,5.78
2019-01-11T15:05:16.302Z,5.47
2019-01-11T15:08:21.949Z,5.62
2019-01-11T15:11:27.587Z,5.41
2019-01-11T15:14:33.229Z,5.38
2019-01-11T15:17:38.929Z,5.31
2019-01-11T15:20:44.516Z,5.34
2019-01-11T15:23:50.136Z,5.20
2019-01-11T15:26:55.726Z,5.46
2019-01-11T15:30:01.373Z,5.19
2019-01-11T15:33:07.074Z,5.10
2019-01-11T15:36:12.735Z,5.00
2019-01-11T15:39:18.385Z,5.21
2019-01-11T15:42:24.023Z,5.23
2019-01-11T15:45:29.658Z,5.19
2019-01-11T15:48:45.055Z,5.19
2019-01-11T15:51:50.675Z,4.99
2019-01-11T15:54:56.333Z,5.03
2019-01-11T15:58:01.957Z,4.93
2019-01-11T16:01:07.743Z,4.99
2019-01-11T16:04:13.392Z,5.03
2019-01-11T16:07:19.047Z,4.76
2019-01-11T16:10:24.731Z,4.93
2019-01-11T16:13:56.434Z,4.95
2019-01-11T16:17:06.596Z,4.85
2019-01-11T16:20:12.839Z,4.95
2019-01-11T16:23:18.598Z,4.91
2019-01-11T16:26:24.223Z,4.75
2019-01-11T16:29:29.813Z,4.63
2019-01-11T16:32:35.533Z,4.76
2019-01-11T16:35:41.485Z,4.38
2019-01-11T16:38:47.097Z,4.59
2019-01-11T16:41:52.697Z,4.30
2019-01-11T16:44:58.321Z,4.53
2019-01-11T16:48:04.025Z,4.56
2019-01-11T16:51:09.639Z,4.45
2019-01-11T16:54:15.425Z,4.31
2019-01-11T16:57:21.059Z,4.32
2019-01-11T17:00:26.840Z,4.11
2019-01-11T17:03:32.565Z,4.40
2019-01-11T17:06:38.330Z,4.39
2019-01-11T17:09:43.968Z,4.19
2019-01-11T17:12:49.584Z,4.04
2019-01-11T17:15:55.177Z,3.99
2019-01-11T17:19:00.865Z,4.05
2019-01-11T17:22:06.777Z,3.89
2019-01-11T17:25:12.546Z,3.89
2019-01-11T17:28:18.170Z,3.48
2019-01-11T17:31:23.805Z,3.55
2019-01-11T17:34:29.413Z,3.34
2019-01-11T17:37:35.037Z,3.52
2019-01-11T17:40:40.682Z,3.49
2019-01-11T17:43:46.416Z,3.38
2019-01-11T17:46:52.073Z,3.47
2019-01-11T17:50:01.157Z,3.39
2019-01-11T17:53:05.353Z,3.37
2019-01-11T17:56:11.153Z,3.53
2019-01-11T17:59:16.794Z,3.47
2019-01-11T18:02:22.448Z,3.19
2019-01-11T18:05:28.133Z,3.37
2019-01-11T18:08:33.783Z,3.31
2019-01-11T18:11:39.358Z,3.26
2019-01-11T18:14:46.058Z,3.23
2019-01-11T18:17:51.892Z,3.31
2019-01-11T18:20:57.531Z,3.50
2019-01-11T18:24:03.116Z,3.30
2019-01-11T18:27:08.751Z,3.36
2019-01-11T18:30:15.942Z,3.10
2019-01-11T18:33:21.622Z,3.35
2019-01-11T18:36:27.348Z,3.24
2019-01-11T18:39:32.968Z,3.22
2019-01-11T18:42:38.590Z,3.69
2019-01-11T18:45:44.181Z,3.60
2019-01-11T18:48:49.820Z,3.51
2019-01-11T18:51:55.475Z,3.21
2019-01-11T18:55:01.272Z,3.29
2019-01-11T18:58:07.282Z,3.45
2019-01-11T19:01:12.927Z,3.49
2019-01-11T19:04:18.566Z,3.28
2019-01-11T19:07:25.204Z,3.28
2019-01-11T19:10:30.915Z,3.17
2019-01-11T19:13:36.646Z,3.24
2019-01-11T19:16:42.308Z,3.43
2019-01-11T19:19:48.024Z,3.37
2019-01-11T19:22:53.799Z,3.52
2019-01-11T19:25:59.398Z,3.81
2019-01-11T19:29:05.232Z,4.08
2019-01-11T19:32:10.852Z,3.68
2019-01-11T19:35:16.460Z,3.52
2019-01-11T19:38:22.428Z,3.25
2019-01-11T19:41:28.129Z,3.15
2019-01-11T19:44:33.803Z,3.12
2019-01-11T19:47:39.539Z,3.25
2019-01-11T19:50:46.300Z,3.30
2019-01-11T19:53:51.997Z,3.13
2019-01-11T19:56:57.566Z,2.75
2019-01-11T20:00:03.171Z,2.81
2019-01-11T20:03:09.018Z,2.90
2019-01-11T20:06:14.589Z,3.05
2019-01-11T20:09:20.323Z,2.86
2019-01-11T20:12:25.927Z,2.89
2019-01-11T20:15:32.050Z,3.18
2019-01-11T20:18:37.826Z,3.28
2019-01-11T20:21:43.545Z,3.31
2019-01-11T20:24:49.717Z,3.23
2019-01-11T20:27:55.343Z,3.30
2019-01-11T20:31:00.977Z,3.26
2019-01-11T20:34:08.702Z,3.09
2019-01-11T20:37:38.983Z,2.96
2019-01-11T20:40:44.718Z,3.07
2019-01-11T20:43:50.342Z,3.19
2019-01-11T20:46:55.988Z,3.00
2019-01-11T20:50:01.619Z,3.11
2019-01-11T20:53:07.222Z,3.19
2019-01-11T20:56:12.946Z,3.10
2019-01-11T20:59:18.572Z,3.33
2019-01-11T21:02:24.296Z,3.24
2019-01-11T21:05:30.416Z,3.11
2019-01-11T21:08:36.035Z,3.25
2019-01-11T21:11:41.697Z,3.12
2019-01-11T21:14:47.331Z,2.84
2019-01-11T21:17:53.156Z,3.33
2019-01-11T21:20:58.748Z,3.12
2019-01-11T21:24:04.677Z,3.30
2019-01-11T21:27:10.472Z,2.90
2019-01-11T21:30:24.361Z,3.34
2019-01-11T21:33:30.101Z,2.87
2019-01-11T21:36:35.769Z,3.17
2019-01-11T21:39:41.528Z,3.48
2019-01-11T21:42:47.657Z,3.04
2019-01-11T21:45:53.325Z,3.32
2019-01-11T21:48:59.255Z,3.26
2019-01-11T21:52:05.163Z,3.29
2019-01-11T21:55:11.939Z,3.45
2019-01-11T21:58:17.522Z,3.60
2019-01-11T22:01:23.166Z,3.49
2019-01-11T22:04:28.793Z,3.35
2019-01-11T22:07:35.523Z,3.26
2019-01-11T22:10:41.162Z,3.45
2019-01-11T22:13:46.983Z,3.33
2019-01-11T22:16:52.744Z,3.37
2019-01-11T22:19:58.529Z,3.00
2019-01-11T22:23:04.376Z,3.25
2019-01-11T22:26:10.236Z,3.28
2019-01-11T22:29:16.093Z,3.41
2019-01-11T22:32:21.824Z,3.38
2019-01-11T22:35:27.507Z,3.15
2019-01-11T22:38:33.188Z,3.20
2019-01-11T22:41:38.885Z,3.24
2019-01-11T22:44:44.466Z,2.80
2019-01-11T22:47:50.129Z,2.89
2019-01-11T22:50:55.777Z,3.18
2019-01-11T22:54:01.405Z,2.76
2019-01-11T22:57:07.172Z,3.00
2019-01-11T23:00:42.002Z,2.91
2019-01-11T23:03:51.070Z,3.16
2019-01-11T23:07:22.140Z,3.14
2019-01-11T23:11:07.398Z,3.10
2019-01-11T23:14:13.037Z,3.13
2019-01-11T23:17:34.466Z,3.12
2019-01-11T23:20:40.198Z,3.22
2019-01-11T23:23:45.938Z,3.15
2019-01-11T23:26:51.652Z,2.95
2019-01-11T23:29:57.374Z,3.24
2019-01-11T23:33:03.111Z,3.23
2019-01-11T23:36:08.895Z,3.37
2019-01-11T23:39:14.562Z,3.56
2019-01-11T23:42:20.192Z,3.21
2019-01-11T23:45:25.985Z,3.22
2019-01-11T23:48:31.613Z,3.35
2019-01-11T23:51:37.277Z,3.26
2019-01-11T23:54:42.903Z,3.16
2019-01-11T23:57:48.549Z,3.26
